sensor_id;sensor_type;location;lat;lon;timestamp;P1;durP1;ratioP1;P2;durP2;ratioP2
12076;SDS011;12420;42.676;23.262;2023-10-31T00:00:11;5.27;;;3.70;;
12076;SDS011;12420;42.676;23.262;2023-10-31T00:02:40;5.83;;;3.67;;
12076;SDS011;12420;42.676;23.262;2023-10-31T00:05:06;8.67;;;4.03;;
12076;SDS011;12420;42.676;23.262;2023-10-31T00:07:33;6.50;;;3.90;;
12076;SDS011;12420;42.676;23.262;2023-10-31T00:10:00;6.10;;;4.40;;
12076;SDS011;12420;42.676;23.262;2023-10-31T00:12:27;9.00;;;4.30;;
12076;SDS011;12420;42.676;23.262;2023-10-31T00:14:53;6.47;;;4.13;;
12076;SDS011;12420;42.676;23.262;2023-10-31T00:17:20;5.87;;;4.43;;
12076;SDS011;12420;42.676;23.262;2023-10-31T00:19:48;7.90;;;4.37;;
12076;SDS011;12420;42.676;23.262;2023-10-31T00:22:15;9.50;;;4.57;;
12076;SDS011;12420;42.676;23.262;2023-10-31T00:24:42;9.03;;;4.83;;
12076;SDS011;12420;42.676;23.262;2023-10-31T00:27:09;8.47;;;4.47;;
12076;SDS011;12420;42.676;23.262;2023-10-31T00:29:36;6.17;;;4.67;;
12076;SDS011;12420;42.676;23.262;2023-10-31T00:32:03;5.93;;;4.40;;
12076;SDS011;12420;42.676;23.262;2023-10-31T00:34:29;6.27;;;4.60;;
12076;SDS011;12420;42.676;23.262;2023-10-31T00:36:57;7.57;;;4.73;;
12076;SDS011;12420;42.676;23.262;2023-10-31T00:39:24;8.63;;;4.20;;
12076;SDS011;12420;42.676;23.262;2023-10-31T00:41:51;5.13;;;4.63;;
12076;SDS011;12420;42.676;23.262;2023-10-31T00:44:18;7.43;;;4.57;;
12076;SDS011;12420;42.676;23.262;2023-10-31T00:46:45;7.60;;;4.37;;
12076;SDS011;12420;42.676;23.262;2023-10-31T00:49:11;7.80;;;4.33;;
12076;SDS011;12420;42.676;23.262;2023-10-31T00:51:38;5.83;;;4.30;;
12076;SDS011;12420;42.676;23.262;2023-10-31T00:54:06;6.93;;;4.50;;
12076;SDS011;12420;42.676;23.262;2023-10-31T00:56:33;5.00;;;4.37;;
12076;SDS011;12420;42.676;23.262;2023-10-31T00:59:00;9.97;;;5.20;;
12076;SDS011;12420;42.676;23.262;2023-10-31T01:01:27;8.63;;;4.57;;
12076;SDS011;12420;42.676;23.262;2023-10-31T01:03:54;4.83;;;4.33;;
12076;SDS011;12420;42.676;23.262;2023-10-31T01:06:20;7.50;;;4.43;;
12076;SDS011;12420;42.676;23.262;2023-10-31T01:08:47;5.40;;;4.43;;
12076;SDS011;12420;42.676;23.262;2023-10-31T01:11:15;5.80;;;4.50;;
12076;SDS011;12420;42.676;23.262;2023-10-31T01:13:42;8.20;;;5.00;;
12076;SDS011;12420;42.676;23.262;2023-10-31T01:16:09;8.17;;;4.63;;
12076;SDS011;12420;42.676;23.262;2023-10-31T01:18:36;6.77;;;4.60;;
12076;SDS011;12420;42.676;23.262;2023-10-31T01:21:03;6.57;;;4.07;;
12076;SDS011;12420;42.676;23.262;2023-10-31T01:23:29;6.83;;;4.73;;
12076;SDS011;12420;42.676;23.262;2023-10-31T01:25:56;8.43;;;4.90;;
12076;SDS011;12420;42.676;23.262;2023-10-31T01:28:24;5.87;;;4.67;;
12076;SDS011;12420;42.676;23.262;2023-10-31T01:30:51;6.70;;;4.67;;
12076;SDS011;12420;42.676;23.262;2023-10-31T01:33:18;7.10;;;4.60;;
12076;SDS011;12420;42.676;23.262;2023-10-31T01:35:45;7.27;;;4.60;;
12076;SDS011;12420;42.676;23.262;2023-10-31T01:38:11;6.70;;;4.33;;
12076;SDS011;12420;42.676;23.262;2023-10-31T01:40:38;8.57;;;4.97;;
12076;SDS011;12420;42.676;23.262;2023-10-31T01:43:05;6.10;;;4.67;;
12076;SDS011;12420;42.676;23.262;2023-10-31T01:45:33;9.17;;;4.80;;
12076;SDS011;12420;42.676;23.262;2023-10-31T01:47:59;7.83;;;4.60;;
12076;SDS011;12420;42.676;23.262;2023-10-31T01:50:27;6.93;;;4.50;;
12076;SDS011;12420;42.676;23.262;2023-10-31T01:52:54;6.13;;;4.37;;
12076;SDS011;12420;42.676;23.262;2023-10-31T01:55:20;6.80;;;4.40;;
12076;SDS011;12420;42.676;23.262;2023-10-31T01:57:47;8.30;;;4.50;;
12076;SDS011;12420;42.676;23.262;2023-10-31T02:00:14;5.07;;;4.07;;
12076;SDS011;12420;42.676;23.262;2023-10-31T02:02:43;8.30;;;4.30;;
12076;SDS011;12420;42.676;23.262;2023-10-31T02:05:10;14.27;;;5.00;;
12076;SDS011;12420;42.676;23.262;2023-10-31T02:07:37;9.10;;;5.73;;
12076;SDS011;12420;42.676;23.262;2023-10-31T02:10:04;11.93;;;5.87;;
12076;SDS011;12420;42.676;23.262;2023-10-31T02:12:31;12.73;;;5.13;;
12076;SDS011;12420;42.676;23.262;2023-10-31T02:14:59;6.73;;;5.03;;
12076;SDS011;12420;42.676;23.262;2023-10-31T02:17:26;7.20;;;4.73;;
12076;SDS011;12420;42.676;23.262;2023-10-31T02:19:54;6.60;;;4.87;;
12076;SDS011;12420;42.676;23.262;2023-10-31T02:22:22;8.73;;;5.20;;
12076;SDS011;12420;42.676;23.262;2023-10-31T02:24:49;8.13;;;5.10;;
12076;SDS011;12420;42.676;23.262;2023-10-31T02:27:16;5.67;;;4.73;;
12076;SDS011;12420;42.676;23.262;2023-10-31T02:29:42;6.10;;;4.60;;
12076;SDS011;12420;42.676;23.262;2023-10-31T02:32:09;9.37;;;4.40;;
12076;SDS011;12420;42.676;23.262;2023-10-31T02:34:36;7.60;;;4.73;;
12076;SDS011;12420;42.676;23.262;2023-10-31T02:37:03;6.87;;;4.53;;
12076;SDS011;12420;42.676;23.262;2023-10-31T02:39:31;7.03;;;4.60;;
12076;SDS011;12420;42.676;23.262;2023-10-31T02:41:58;5.97;;;4.43;;
12076;SDS011;12420;42.676;23.262;2023-10-31T02:44:25;6.87;;;4.50;;
12076;SDS011;12420;42.676;23.262;2023-10-31T02:46:52;6.43;;;4.93;;
12076;SDS011;12420;42.676;23.262;2023-10-31T02:49:19;7.43;;;4.60;;
12076;SDS011;12420;42.676;23.262;2023-10-31T02:51:45;9.77;;;7.17;;
12076;SDS011;12420;42.676;23.262;2023-10-31T02:54:12;9.17;;;7.53;;
12076;SDS011;12420;42.676;23.262;2023-10-31T02:56:40;12.30;;;5.30;;
12076;SDS011;12420;42.676;23.262;2023-10-31T02:59:07;9.10;;;5.23;;
12076;SDS011;12420;42.676;23.262;2023-10-31T03:01:34;6.53;;;5.07;;
12076;SDS011;12420;42.676;23.262;2023-10-31T03:04:01;6.80;;;4.57;;
12076;SDS011;12420;42.676;23.262;2023-10-31T03:06:28;9.93;;;5.10;;
12076;SDS011;12420;42.676;23.262;2023-10-31T03:08:55;8.47;;;5.50;;
12076;SDS011;12420;42.676;23.262;2023-10-31T03:11:22;10.53;;;5.60;;
12076;SDS011;12420;42.676;23.262;2023-10-31T03:13:51;7.53;;;5.47;;
12076;SDS011;12420;42.676;23.262;2023-10-31T03:16:18;7.37;;;5.50;;
12076;SDS011;12420;42.676;23.262;2023-10-31T03:18:46;9.20;;;5.73;;
12076;SDS011;12420;42.676;23.262;2023-10-31T03:21:16;9.27;;;5.10;;
12076;SDS011;12420;42.676;23.262;2023-10-31T03:23:44;7.93;;;5.23;;
12076;SDS011;12420;42.676;23.262;2023-10-31T03:26:14;7.47;;;5.63;;
12076;SDS011;12420;42.676;23.262;2023-10-31T03:28:42;8.47;;;5.77;;
12076;SDS011;12420;42.676;23.262;2023-10-31T03:31:10;7.73;;;5.33;;
12076;SDS011;12420;42.676;23.262;2023-10-31T03:33:38;8.20;;;6.07;;
12076;SDS011;12420;42.676;23.262;2023-10-31T03:36:05;11.87;;;5.90;;
12076;SDS011;12420;42.676;23.262;2023-10-31T03:38:32;7.57;;;5.83;;
12076;SDS011;12420;42.676;23.262;2023-10-31T03:40:58;9.43;;;6.37;;
12076;SDS011;12420;42.676;23.262;2023-10-31T03:43:25;8.33;;;6.67;;
12076;SDS011;12420;42.676;23.262;2023-10-31T03:45:52;8.33;;;6.80;;
12076;SDS011;12420;42.676;23.262;2023-10-31T03:48:20;9.37;;;6.57;;
12076;SDS011;12420;42.676;23.262;2023-10-31T03:50:47;12.20;;;6.60;;
12076;SDS011;12420;42.676;23.262;2023-10-31T03:53:14;8.93;;;6.63;;
12076;SDS011;12420;42.676;23.262;2023-10-31T03:55:41;11.13;;;6.20;;
12076;SDS011;12420;42.676;23.262;2023-10-31T03:58:08;11.03;;;7.10;;
12076;SDS011;12420;42.676;23.262;2023-10-31T04:00:35;12.33;;;6.77;;
12076;SDS011;12420;42.676;23.262;2023-10-31T04:03:01;8.40;;;6.77;;
12076;SDS011;12420;42.676;23.262;2023-10-31T04:05:29;12.60;;;7.43;;
12076;SDS011;12420;42.676;23.262;2023-10-31T04:07:56;11.50;;;7.20;;
12076;SDS011;12420;42.676;23.262;2023-10-31T04:10:23;16.07;;;7.40;;
12076;SDS011;12420;42.676;23.262;2023-10-31T04:12:50;11.63;;;6.83;;
12076;SDS011;12420;42.676;23.262;2023-10-31T04:15:17;8.87;;;6.57;;
12076;SDS011;12420;42.676;23.262;2023-10-31T04:17:44;11.60;;;6.80;;
12076;SDS011;12420;42.676;23.262;2023-10-31T04:20:10;8.97;;;6.47;;
12076;SDS011;12420;42.676;23.262;2023-10-31T04:22:39;12.13;;;6.80;;
12076;SDS011;12420;42.676;23.262;2023-10-31T04:25:06;13.30;;;7.17;;
12076;SDS011;12420;42.676;23.262;2023-10-31T04:27:33;11.50;;;6.53;;
12076;SDS011;12420;42.676;23.262;2023-10-31T04:29:59;14.83;;;6.93;;
12076;SDS011;12420;42.676;23.262;2023-10-31T04:32:26;8.97;;;6.63;;
12076;SDS011;12420;42.676;23.262;2023-10-31T04:34:53;8.93;;;6.30;;
12076;SDS011;12420;42.676;23.262;2023-10-31T04:37:20;8.67;;;6.10;;
12076;SDS011;12420;42.676;23.262;2023-10-31T04:39:48;35.93;;;7.67;;
12076;SDS011;12420;42.676;23.262;2023-10-31T04:42:15;21.30;;;6.87;;
12076;SDS011;12420;42.676;23.262;2023-10-31T04:44:42;15.33;;;6.77;;
12076;SDS011;12420;42.676;23.262;2023-10-31T04:47:09;12.53;;;6.17;;
12076;SDS011;12420;42.676;23.262;2023-10-31T04:49:36;16.17;;;6.80;;
12076;SDS011;12420;42.676;23.262;2023-10-31T04:52:03;11.53;;;6.70;;
12076;SDS011;12420;42.676;23.262;2023-10-31T04:54:30;9.40;;;6.60;;
12076;SDS011;12420;42.676;23.262;2023-10-31T04:56:58;12.43;;;7.03;;
12076;SDS011;12420;42.676;23.262;2023-10-31T04:59:25;11.80;;;7.77;;
12076;SDS011;12420;42.676;23.262;2023-10-31T05:01:52;16.43;;;8.63;;
12076;SDS011;12420;42.676;23.262;2023-10-31T05:04:20;13.10;;;7.63;;
12076;SDS011;12420;42.676;23.262;2023-10-31T05:06:47;13.87;;;8.30;;
12076;SDS011;12420;42.676;23.262;2023-10-31T05:09:14;15.60;;;8.77;;
12076;SDS011;12420;42.676;23.262;2023-10-31T05:11:40;12.37;;;7.73;;
12076;SDS011;12420;42.676;23.262;2023-10-31T05:14:09;15.87;;;8.20;;
12076;SDS011;12420;42.676;23.262;2023-10-31T05:16:40;18.17;;;8.67;;
12076;SDS011;12420;42.676;23.262;2023-10-31T05:19:08;12.97;;;8.20;;
12076;SDS011;12420;42.676;23.262;2023-10-31T05:21:35;17.97;;;7.93;;
12076;SDS011;12420;42.676;23.262;2023-10-31T05:24:02;17.77;;;8.40;;
12076;SDS011;12420;42.676;23.262;2023-10-31T05:26:31;14.77;;;8.33;;
12076;SDS011;12420;42.676;23.262;2023-10-31T05:28:58;16.93;;;8.50;;
12076;SDS011;12420;42.676;23.262;2023-10-31T05:31:26;21.10;;;8.87;;
12076;SDS011;12420;42.676;23.262;2023-10-31T05:33:53;17.80;;;8.60;;
12076;SDS011;12420;42.676;23.262;2023-10-31T05:36:20;15.73;;;8.70;;
12076;SDS011;12420;42.676;23.262;2023-10-31T05:38:47;13.10;;;8.23;;
12076;SDS011;12420;42.676;23.262;2023-10-31T05:41:14;24.43;;;8.63;;
12076;SDS011;12420;42.676;23.262;2023-10-31T05:43:42;22.13;;;8.90;;
12076;SDS011;12420;42.676;23.262;2023-10-31T05:46:09;16.13;;;8.47;;
12076;SDS011;12420;42.676;23.262;2023-10-31T05:48:39;21.30;;;9.10;;
12076;SDS011;12420;42.676;23.262;2023-10-31T05:51:10;16.83;;;9.80;;
12076;SDS011;12420;42.676;23.262;2023-10-31T05:53:39;13.07;;;8.43;;
12076;SDS011;12420;42.676;23.262;2023-10-31T05:56:07;17.30;;;8.97;;
12076;SDS011;12420;42.676;23.262;2023-10-31T05:58:35;13.50;;;9.07;;
12076;SDS011;12420;42.676;23.262;2023-10-31T06:01:03;25.30;;;9.80;;
12076;SDS011;12420;42.676;23.262;2023-10-31T06:03:30;15.23;;;9.20;;
12076;SDS011;12420;42.676;23.262;2023-10-31T06:05:58;19.33;;;9.43;;
12076;SDS011;12420;42.676;23.262;2023-10-31T06:08:26;20.10;;;9.07;;
12076;SDS011;12420;42.676;23.262;2023-10-31T06:10:54;11.90;;;8.40;;
12076;SDS011;12420;42.676;23.262;2023-10-31T06:13:21;16.37;;;8.77;;
12076;SDS011;12420;42.676;23.262;2023-10-31T06:15:50;15.47;;;8.90;;
12076;SDS011;12420;42.676;23.262;2023-10-31T06:18:17;14.07;;;9.07;;
12076;SDS011;12420;42.676;23.262;2023-10-31T06:20:44;14.37;;;8.40;;
12076;SDS011;12420;42.676;23.262;2023-10-31T06:23:13;13.40;;;8.97;;
12076;SDS011;12420;42.676;23.262;2023-10-31T06:25:39;19.20;;;8.80;;
12076;SDS011;12420;42.676;23.262;2023-10-31T06:28:06;17.20;;;8.73;;
12076;SDS011;12420;42.676;23.262;2023-10-31T06:30:33;11.50;;;8.53;;
12076;SDS011;12420;42.676;23.262;2023-10-31T06:33:00;13.10;;;8.23;;
12076;SDS011;12420;42.676;23.262;2023-10-31T06:35:27;21.40;;;9.43;;
12076;SDS011;12420;42.676;23.262;2023-10-31T06:37:55;14.00;;;8.33;;
12076;SDS011;12420;42.676;23.262;2023-10-31T06:40:24;14.53;;;9.00;;
12076;SDS011;12420;42.676;23.262;2023-10-31T06:42:51;16.50;;;8.87;;
12076;SDS011;12420;42.676;23.262;2023-10-31T06:45:18;14.60;;;8.60;;
12076;SDS011;12420;42.676;23.262;2023-10-31T06:47:46;15.60;;;9.47;;
12076;SDS011;12420;42.676;23.262;2023-10-31T06:50:13;14.43;;;8.20;;
12076;SDS011;12420;42.676;23.262;2023-10-31T06:52:39;16.40;;;8.80;;
12076;SDS011;12420;42.676;23.262;2023-10-31T06:55:07;14.83;;;8.90;;
12076;SDS011;12420;42.676;23.262;2023-10-31T06:57:35;17.50;;;9.23;;
12076;SDS011;12420;42.676;23.262;2023-10-31T07:00:02;19.30;;;9.47;;
12076;SDS011;12420;42.676;23.262;2023-10-31T07:02:33;18.20;;;9.20;;
12076;SDS011;12420;42.676;23.262;2023-10-31T07:05:00;13.43;;;8.87;;
12076;SDS011;12420;42.676;23.262;2023-10-31T07:07:27;15.80;;;9.47;;
12076;SDS011;12420;42.676;23.262;2023-10-31T07:09:54;22.13;;;9.27;;
12076;SDS011;12420;42.676;23.262;2023-10-31T07:12:20;16.43;;;8.47;;
12076;SDS011;12420;42.676;23.262;2023-10-31T07:14:49;12.30;;;9.00;;
12076;SDS011;12420;42.676;23.262;2023-10-31T07:17:15;17.50;;;9.90;;
12076;SDS011;12420;42.676;23.262;2023-10-31T07:19:42;11.90;;;8.87;;
12076;SDS011;12420;42.676;23.262;2023-10-31T07:22:09;13.13;;;8.20;;
12076;SDS011;12420;42.676;23.262;2023-10-31T07:24:36;13.97;;;8.57;;
12076;SDS011;12420;42.676;23.262;2023-10-31T07:27:03;10.23;;;7.50;;
12076;SDS011;12420;42.676;23.262;2023-10-31T07:29:29;13.40;;;8.57;;
12076;SDS011;12420;42.676;23.262;2023-10-31T07:31:58;13.17;;;8.90;;
12076;SDS011;12420;42.676;23.262;2023-10-31T07:34:24;11.90;;;8.27;;
12076;SDS011;12420;42.676;23.262;2023-10-31T07:36:51;10.93;;;8.40;;
12076;SDS011;12420;42.676;23.262;2023-10-31T07:39:18;16.73;;;9.30;;
12076;SDS011;12420;42.676;23.262;2023-10-31T07:41:45;18.53;;;9.00;;
12076;SDS011;12420;42.676;23.262;2023-10-31T07:44:12;12.77;;;8.40;;
12076;SDS011;12420;42.676;23.262;2023-10-31T07:46:38;11.37;;;7.73;;
12076;SDS011;12420;42.676;23.262;2023-10-31T07:49:07;12.50;;;8.00;;
12076;SDS011;12420;42.676;23.262;2023-10-31T07:51:33;13.37;;;8.20;;
12076;SDS011;12420;42.676;23.262;2023-10-31T07:54:00;12.53;;;8.27;;
12076;SDS011;12420;42.676;23.262;2023-10-31T07:56:27;19.20;;;8.77;;
12076;SDS011;12420;42.676;23.262;2023-10-31T07:58:54;12.27;;;8.73;;
12076;SDS011;12420;42.676;23.262;2023-10-31T08:01:22;12.63;;;8.63;;
12076;SDS011;12420;42.676;23.262;2023-10-31T08:03:49;8.67;;;7.70;;
12076;SDS011;12420;42.676;23.262;2023-10-31T08:06:17;12.70;;;8.23;;
12076;SDS011;12420;42.676;23.262;2023-10-31T08:08:44;15.80;;;8.77;;
12076;SDS011;12420;42.676;23.262;2023-10-31T08:11:11;21.73;;;9.80;;
12076;SDS011;12420;42.676;23.262;2023-10-31T08:13:38;14.57;;;9.53;;
12076;SDS011;12420;42.676;23.262;2023-10-31T08:16:06;18.67;;;9.33;;
12076;SDS011;12420;42.676;23.262;2023-10-31T08:18:33;19.17;;;9.30;;
12076;SDS011;12420;42.676;23.262;2023-10-31T08:21:00;18.37;;;9.20;;
12076;SDS011;12420;42.676;23.262;2023-10-31T08:23:29;13.50;;;8.77;;
12076;SDS011;12420;42.676;23.262;2023-10-31T08:25:56;15.77;;;8.20;;
12076;SDS011;12420;42.676;23.262;2023-10-31T08:28:23;15.33;;;8.40;;
12076;SDS011;12420;42.676;23.262;2023-10-31T08:30:50;11.30;;;8.23;;
12076;SDS011;12420;42.676;23.262;2023-10-31T08:33:17;10.63;;;8.23;;
12076;SDS011;12420;42.676;23.262;2023-10-31T08:35:44;17.50;;;7.93;;
12076;SDS011;12420;42.676;23.262;2023-10-31T08:38:12;10.03;;;7.30;;
12076;SDS011;12420;42.676;23.262;2023-10-31T08:40:41;13.90;;;7.50;;
12076;SDS011;12420;42.676;23.262;2023-10-31T08:43:07;12.57;;;8.07;;
12076;SDS011;12420;42.676;23.262;2023-10-31T08:45:34;13.17;;;7.93;;
12076;SDS011;12420;42.676;23.262;2023-10-31T08:48:01;14.97;;;8.47;;
12076;SDS011;12420;42.676;23.262;2023-10-31T08:50:28;12.40;;;8.53;;
12076;SDS011;12420;42.676;23.262;2023-10-31T08:52:55;12.43;;;8.27;;
12076;SDS011;12420;42.676;23.262;2023-10-31T08:55:21;12.80;;;7.20;;
12076;SDS011;12420;42.676;23.262;2023-10-31T08:57:49;11.50;;;7.23;;
12076;SDS011;12420;42.676;23.262;2023-10-31T09:00:18;11.47;;;6.50;;
12076;SDS011;12420;42.676;23.262;2023-10-31T09:02:45;11.37;;;7.30;;
12076;SDS011;12420;42.676;23.262;2023-10-31T09:05:12;7.60;;;6.53;;
12076;SDS011;12420;42.676;23.262;2023-10-31T09:07:39;12.20;;;7.30;;
12076;SDS011;12420;42.676;23.262;2023-10-31T09:10:06;16.23;;;7.47;;
12076;SDS011;12420;42.676;23.262;2023-10-31T09:12:34;9.87;;;6.53;;
12076;SDS011;12420;42.676;23.262;2023-10-31T09:15:02;12.73;;;5.60;;
12076;SDS011;12420;42.676;23.262;2023-10-31T09:17:29;9.00;;;4.73;;
12076;SDS011;12420;42.676;23.262;2023-10-31T09:19:56;8.80;;;5.17;;
12076;SDS011;12420;42.676;23.262;2023-10-31T09:22:24;9.73;;;5.60;;
12076;SDS011;12420;42.676;23.262;2023-10-31T09:24:50;9.73;;;5.27;;
12076;SDS011;12420;42.676;23.262;2023-10-31T09:27:17;8.37;;;5.60;;
12076;SDS011;12420;42.676;23.262;2023-10-31T09:29:44;9.50;;;5.40;;
12076;SDS011;12420;42.676;23.262;2023-10-31T09:32:13;11.50;;;5.70;;
12076;SDS011;12420;42.676;23.262;2023-10-31T09:34:40;10.07;;;5.77;;
12076;SDS011;12420;42.676;23.262;2023-10-31T09:37:07;8.43;;;5.23;;
12076;SDS011;12420;42.676;23.262;2023-10-31T09:39:34;12.87;;;5.10;;
12076;SDS011;12420;42.676;23.262;2023-10-31T09:42:01;11.43;;;5.50;;
12076;SDS011;12420;42.676;23.262;2023-10-31T09:44:28;11.27;;;4.77;;
12076;SDS011;12420;42.676;23.262;2023-10-31T09:46:54;12.40;;;5.53;;
12076;SDS011;12420;42.676;23.262;2023-10-31T09:49:24;12.70;;;5.80;;
12076;SDS011;12420;42.676;23.262;2023-10-31T09:51:51;8.47;;;5.23;;
12076;SDS011;12420;42.676;23.262;2023-10-31T09:54:18;12.97;;;5.87;;
12076;SDS011;12420;42.676;23.262;2023-10-31T09:56:45;16.80;;;5.87;;
12076;SDS011;12420;42.676;23.262;2023-10-31T09:59:13;9.27;;;5.10;;
12076;SDS011;12420;42.676;23.262;2023-10-31T10:01:41;7.83;;;4.70;;
12076;SDS011;12420;42.676;23.262;2023-10-31T10:04:08;12.00;;;4.87;;
12076;SDS011;12420;42.676;23.262;2023-10-31T10:06:40;8.03;;;4.80;;
12076;SDS011;12420;42.676;23.262;2023-10-31T10:09:16;5.97;;;4.63;;
12076;SDS011;12420;42.676;23.262;2023-10-31T10:11:43;17.53;;;5.07;;
12076;SDS011;12420;42.676;23.262;2023-10-31T10:14:11;15.83;;;5.57;;
12076;SDS011;12420;42.676;23.262;2023-10-31T10:16:38;6.60;;;4.27;;
12076;SDS011;12420;42.676;23.262;2023-10-31T10:19:14;8.03;;;4.97;;
12076;SDS011;12420;42.676;23.262;2023-10-31T10:21:49;12.97;;;4.17;;
12076;SDS011;12420;42.676;23.262;2023-10-31T10:24:17;11.57;;;4.83;;
12076;SDS011;12420;42.676;23.262;2023-10-31T10:26:44;10.10;;;4.83;;
12076;SDS011;12420;42.676;23.262;2023-10-31T10:29:12;11.50;;;4.67;;
12076;SDS011;12420;42.676;23.262;2023-10-31T10:31:39;7.37;;;4.00;;
12076;SDS011;12420;42.676;23.262;2023-10-31T10:34:05;6.97;;;3.63;;
12076;SDS011;12420;42.676;23.262;2023-10-31T10:36:32;10.40;;;4.37;;
12076;SDS011;12420;42.676;23.262;2023-10-31T10:39:16;8.60;;;4.13;;
12076;SDS011;12420;42.676;23.262;2023-10-31T10:41:45;7.13;;;3.83;;
12076;SDS011;12420;42.676;23.262;2023-10-31T10:44:19;6.63;;;3.77;;
12076;SDS011;12420;42.676;23.262;2023-10-31T10:46:50;7.80;;;4.20;;
12076;SDS011;12420;42.676;23.262;2023-10-31T10:49:23;17.40;;;4.97;;
12076;SDS011;12420;42.676;23.262;2023-10-31T10:51:53;20.13;;;4.70;;
12076;SDS011;12420;42.676;23.262;2023-10-31T10:54:31;6.30;;;4.40;;
12076;SDS011;12420;42.676;23.262;2023-10-31T10:57:04;7.53;;;4.20;;
12076;SDS011;12420;42.676;23.262;2023-10-31T10:59:41;8.40;;;4.63;;
12076;SDS011;12420;42.676;23.262;2023-10-31T11:02:08;8.10;;;4.57;;
12076;SDS011;12420;42.676;23.262;2023-10-31T11:04:40;11.50;;;5.07;;
12076;SDS011;12420;42.676;23.262;2023-10-31T11:07:08;10.17;;;4.70;;
12076;SDS011;12420;42.676;23.262;2023-10-31T11:09:37;8.57;;;4.03;;
12076;SDS011;12420;42.676;23.262;2023-10-31T11:12:04;12.40;;;4.60;;
12076;SDS011;12420;42.676;23.262;2023-10-31T11:14:32;13.53;;;4.90;;
12076;SDS011;12420;42.676;23.262;2023-10-31T11:17:01;9.93;;;4.43;;
12076;SDS011;12420;42.676;23.262;2023-10-31T11:19:32;13.23;;;5.10;;
12076;SDS011;12420;42.676;23.262;2023-10-31T11:22:00;12.03;;;4.10;;
12076;SDS011;12420;42.676;23.262;2023-10-31T11:24:28;9.67;;;4.43;;
12076;SDS011;12420;42.676;23.262;2023-10-31T11:26:59;13.17;;;4.63;;
12076;SDS011;12420;42.676;23.262;2023-10-31T11:29:27;6.60;;;3.80;;
12076;SDS011;12420;42.676;23.262;2023-10-31T11:31:55;7.37;;;3.43;;
12076;SDS011;12420;42.676;23.262;2023-10-31T11:34:22;9.57;;;3.87;;
12076;SDS011;12420;42.676;23.262;2023-10-31T11:36:50;20.17;;;4.80;;
12076;SDS011;12420;42.676;23.262;2023-10-31T11:39:18;10.73;;;3.60;;
12076;SDS011;12420;42.676;23.262;2023-10-31T11:41:50;7.63;;;3.50;;
12076;SDS011;12420;42.676;23.262;2023-10-31T11:44:23;11.07;;;3.50;;
12076;SDS011;12420;42.676;23.262;2023-10-31T11:46:52;4.63;;;3.17;;
12076;SDS011;12420;42.676;23.262;2023-10-31T11:52:21;16.70;;;3.47;;
12076;SDS011;12420;42.676;23.262;2023-10-31T11:54:48;11.57;;;3.83;;
12076;SDS011;12420;42.676;23.262;2023-10-31T11:57:25;10.43;;;2.90;;
12076;SDS011;12420;42.676;23.262;2023-10-31T11:59:55;9.10;;;3.40;;
12076;SDS011;12420;42.676;23.262;2023-10-31T12:02:21;9.83;;;3.40;;
12076;SDS011;12420;42.676;23.262;2023-10-31T12:04:48;8.67;;;3.40;;
12076;SDS011;12420;42.676;23.262;2023-10-31T12:07:15;5.63;;;3.07;;
12076;SDS011;12420;42.676;23.262;2023-10-31T12:09:45;8.37;;;3.00;;
12076;SDS011;12420;42.676;23.262;2023-10-31T12:12:13;5.13;;;3.13;;
12076;SDS011;12420;42.676;23.262;2023-10-31T12:14:40;7.07;;;2.83;;
12076;SDS011;12420;42.676;23.262;2023-10-31T12:17:08;6.47;;;3.00;;
12076;SDS011;12420;42.676;23.262;2023-10-31T12:19:35;9.30;;;2.80;;
12076;SDS011;12420;42.676;23.262;2023-10-31T12:22:02;6.77;;;2.60;;
12076;SDS011;12420;42.676;23.262;2023-10-31T12:24:38;4.23;;;2.50;;
12076;SDS011;12420;42.676;23.262;2023-10-31T12:27:05;9.20;;;2.70;;
12076;SDS011;12420;42.676;23.262;2023-10-31T12:29:32;7.03;;;2.97;;
12076;SDS011;12420;42.676;23.262;2023-10-31T12:31:59;3.47;;;2.60;;
12076;SDS011;12420;42.676;23.262;2023-10-31T12:34:27;6.20;;;3.23;;
12076;SDS011;12420;42.676;23.262;2023-10-31T12:36:59;6.10;;;3.00;;
12076;SDS011;12420;42.676;23.262;2023-10-31T12:39:28;7.00;;;3.03;;
12076;SDS011;12420;42.676;23.262;2023-10-31T12:41:56;5.80;;;3.00;;
12076;SDS011;12420;42.676;23.262;2023-10-31T12:44:23;7.07;;;3.43;;
12076;SDS011;12420;42.676;23.262;2023-10-31T12:46:52;9.70;;;2.93;;
12076;SDS011;12420;42.676;23.262;2023-10-31T12:49:19;9.33;;;3.13;;
12076;SDS011;12420;42.676;23.262;2023-10-31T12:51:57;7.53;;;3.67;;
12076;SDS011;12420;42.676;23.262;2023-10-31T12:54:28;4.53;;;3.20;;
12076;SDS011;12420;42.676;23.262;2023-10-31T12:56:58;7.23;;;3.30;;
12076;SDS011;12420;42.676;23.262;2023-10-31T12:59:26;4.33;;;2.83;;
12076;SDS011;12420;42.676;23.262;2023-10-31T13:01:53;6.67;;;3.13;;
12076;SDS011;12420;42.676;23.262;2023-10-31T13:04:24;7.30;;;3.07;;
12076;SDS011;12420;42.676;23.262;2023-10-31T13:06:55;11.33;;;2.87;;
12076;SDS011;12420;42.676;23.262;2023-10-31T13:09:27;9.40;;;3.50;;
12076;SDS011;12420;42.676;23.262;2023-10-31T13:11:56;8.80;;;3.10;;
12076;SDS011;12420;42.676;23.262;2023-10-31T13:14:24;8.13;;;3.03;;
12076;SDS011;12420;42.676;23.262;2023-10-31T13:16:51;12.50;;;3.50;;
12076;SDS011;12420;42.676;23.262;2023-10-31T13:19:17;7.10;;;3.20;;
12076;SDS011;12420;42.676;23.262;2023-10-31T13:21:44;9.73;;;3.40;;
12076;SDS011;12420;42.676;23.262;2023-10-31T13:24:12;13.13;;;3.30;;
12076;SDS011;12420;42.676;23.262;2023-10-31T13:26:39;12.67;;;3.50;;
12076;SDS011;12420;42.676;23.262;2023-10-31T13:29:05;13.87;;;3.50;;
12076;SDS011;12420;42.676;23.262;2023-10-31T13:31:32;11.23;;;3.63;;
12076;SDS011;12420;42.676;23.262;2023-10-31T13:33:59;10.60;;;3.80;;
12076;SDS011;12420;42.676;23.262;2023-10-31T13:36:26;10.17;;;4.00;;
12076;SDS011;12420;42.676;23.262;2023-10-31T13:38:53;10.77;;;4.17;;
12076;SDS011;12420;42.676;23.262;2023-10-31T13:41:21;10.70;;;3.97;;
12076;SDS011;12420;42.676;23.262;2023-10-31T13:43:48;11.70;;;3.50;;
12076;SDS011;12420;42.676;23.262;2023-10-31T13:46:17;13.20;;;3.70;;
12076;SDS011;12420;42.676;23.262;2023-10-31T13:48:44;13.07;;;3.60;;
12076;SDS011;12420;42.676;23.262;2023-10-31T13:51:10;21.60;;;3.87;;
12076;SDS011;12420;42.676;23.262;2023-10-31T13:53:37;16.03;;;3.83;;
12076;SDS011;12420;42.676;23.262;2023-10-31T13:56:04;7.87;;;3.43;;
12076;SDS011;12420;42.676;23.262;2023-10-31T13:58:32;8.50;;;3.50;;
12076;SDS011;12420;42.676;23.262;2023-10-31T14:01:01;8.63;;;4.00;;
12076;SDS011;12420;42.676;23.262;2023-10-31T14:03:28;7.40;;;3.83;;
12076;SDS011;12420;42.676;23.262;2023-10-31T14:05:55;15.17;;;4.70;;
12076;SDS011;12420;42.676;23.262;2023-10-31T14:08:22;16.63;;;4.77;;
12076;SDS011;12420;42.676;23.262;2023-10-31T14:10:50;7.50;;;4.30;;
12076;SDS011;12420;42.676;23.262;2023-10-31T14:13:16;27.20;;;4.63;;
12076;SDS011;12420;42.676;23.262;2023-10-31T14:15:46;12.07;;;4.70;;
12076;SDS011;12420;42.676;23.262;2023-10-31T14:18:13;11.87;;;4.77;;
12076;SDS011;12420;42.676;23.262;2023-10-31T14:20:40;13.27;;;5.50;;
12076;SDS011;12420;42.676;23.262;2023-10-31T14:23:07;9.40;;;4.93;;
12076;SDS011;12420;42.676;23.262;2023-10-31T14:25:34;17.27;;;5.63;;
12076;SDS011;12420;42.676;23.262;2023-10-31T14:28:00;17.97;;;5.50;;
12076;SDS011;12420;42.676;23.262;2023-10-31T14:30:27;21.43;;;5.80;;
12076;SDS011;12420;42.676;23.262;2023-10-31T14:32:56;22.03;;;5.70;;